sensor_id;sensor_type;location;lat;lon;timestamp;P1;durP1;ratioP1;P2;durP2;ratioP2
18883;SDS011;9574;47.282;9.640;2023-06-26T00:02:16;6.22;;;4.30;;
18883;SDS011;9574;47.282;9.640;2023-06-26T00:04:44;7.75;;;4.68;;
18883;SDS011;9574;47.282;9.640;2023-06-26T00:07:11;6.18;;;4.65;;
18883;SDS011;9574;47.282;9.640;2023-06-26T00:09:37;6.55;;;4.68;;
18883;SDS011;9574;47.282;9.640;2023-06-26T00:12:05;6.20;;;4.45;;
18883;SDS011;9574;47.282;9.640;2023-06-26T00:14:32;6.75;;;4.78;;
18883;SDS011;9574;47.282;9.640;2023-06-26T00:17:00;7.00;;;4.85;;
18883;SDS011;9574;47.282;9.640;2023-06-26T00:19:27;6.65;;;4.25;;
18883;SDS011;9574;47.282;9.640;2023-06-26T00:21:54;7.07;;;4.60;;
18883;SDS011;9574;47.282;9.640;2023-06-26T00:24:21;6.13;;;4.20;;
18883;SDS011;9574;47.282;9.640;2023-06-26T00:26:48;6.60;;;4.70;;
18883;SDS011;9574;47.282;9.640;2023-06-26T00:29:15;5.93;;;4.32;;
18883;SDS011;9574;47.282;9.640;2023-06-26T00:31:42;7.50;;;4.45;;
18883;SDS011;9574;47.282;9.640;2023-06-26T00:34:11;7.10;;;4.30;;
18883;SDS011;9574;47.282;9.640;2023-06-26T00:36:38;7.22;;;4.50;;
18883;SDS011;9574;47.282;9.640;2023-06-26T00:39:08;9.57;;;4.55;;
18883;SDS011;9574;47.282;9.640;2023-06-26T00:41:35;6.85;;;4.40;;
18883;SDS011;9574;47.282;9.640;2023-06-26T00:44:03;6.00;;;4.30;;
18883;SDS011;9574;47.282;9.640;2023-06-26T00:46:30;7.10;;;4.60;;
18883;SDS011;9574;47.282;9.640;2023-06-26T00:48:58;6.55;;;4.80;;
18883;SDS011;9574;47.282;9.640;2023-06-26T00:51:27;5.57;;;4.35;;
18883;SDS011;9574;47.282;9.640;2023-06-26T00:53:56;6.18;;;4.68;;
18883;SDS011;9574;47.282;9.640;2023-06-26T00:56:23;4.88;;;3.70;;
18883;SDS011;9574;47.282;9.640;2023-06-26T00:58:50;5.88;;;4.45;;
18883;SDS011;9574;47.282;9.640;2023-06-26T01:01:17;6.25;;;4.40;;
18883;SDS011;9574;47.282;9.640;2023-06-26T01:03:47;5.78;;;4.43;;
18883;SDS011;9574;47.282;9.640;2023-06-26T01:06:17;7.15;;;4.40;;
18883;SDS011;9574;47.282;9.640;2023-06-26T01:08:47;5.72;;;4.20;;
18883;SDS011;9574;47.282;9.640;2023-06-26T01:11:14;5.45;;;4.25;;
18883;SDS011;9574;47.282;9.640;2023-06-26T01:13:42;7.05;;;4.53;;
18883;SDS011;9574;47.282;9.640;2023-06-26T01:16:10;7.03;;;4.28;;
18883;SDS011;9574;47.282;9.640;2023-06-26T01:18:38;6.47;;;4.43;;
18883;SDS011;9574;47.282;9.640;2023-06-26T01:21:07;6.47;;;3.85;;
18883;SDS011;9574;47.282;9.640;2023-06-26T01:23:36;5.80;;;4.38;;
18883;SDS011;9574;47.282;9.640;2023-06-26T01:26:18;7.35;;;4.32;;
18883;SDS011;9574;47.282;9.640;2023-06-26T01:28:46;5.43;;;3.88;;
18883;SDS011;9574;47.282;9.640;2023-06-26T01:31:15;5.80;;;4.22;;
18883;SDS011;9574;47.282;9.640;2023-06-26T01:33:43;5.90;;;4.68;;
18883;SDS011;9574;47.282;9.640;2023-06-26T01:36:11;8.07;;;4.78;;
18883;SDS011;9574;47.282;9.640;2023-06-26T01:38:38;6.22;;;4.57;;
18883;SDS011;9574;47.282;9.640;2023-06-26T01:41:05;6.00;;;4.18;;
18883;SDS011;9574;47.282;9.640;2023-06-26T01:43:35;7.18;;;4.30;;
18883;SDS011;9574;47.282;9.640;2023-06-26T01:46:09;5.50;;;4.10;;
18883;SDS011;9574;47.282;9.640;2023-06-26T01:48:46;5.97;;;4.38;;
18883;SDS011;9574;47.282;9.640;2023-06-26T01:51:21;7.55;;;4.10;;
18883;SDS011;9574;47.282;9.640;2023-06-26T01:53:56;6.55;;;4.38;;
18883;SDS011;9574;47.282;9.640;2023-06-26T01:56:25;6.63;;;4.55;;
18883;SDS011;9574;47.282;9.640;2023-06-26T01:58:56;8.23;;;4.30;;
18883;SDS011;9574;47.282;9.640;2023-06-26T02:01:23;5.13;;;4.13;;
18883;SDS011;9574;47.282;9.640;2023-06-26T02:03:50;7.93;;;4.70;;
18883;SDS011;9574;47.282;9.640;2023-06-26T02:06:17;6.20;;;4.60;;
18883;SDS011;9574;47.282;9.640;2023-06-26T02:08:44;7.53;;;4.45;;
18883;SDS011;9574;47.282;9.640;2023-06-26T02:11:11;7.70;;;4.55;;
18883;SDS011;9574;47.282;9.640;2023-06-26T02:13:38;6.00;;;4.40;;
18883;SDS011;9574;47.282;9.640;2023-06-26T02:16:06;5.90;;;4.40;;
18883;SDS011;9574;47.282;9.640;2023-06-26T02:18:33;6.75;;;4.20;;
18883;SDS011;9574;47.282;9.640;2023-06-26T02:21:00;5.93;;;4.38;;
18883;SDS011;9574;47.282;9.640;2023-06-26T02:23:29;5.90;;;4.30;;
18883;SDS011;9574;47.282;9.640;2023-06-26T02:25:56;8.20;;;4.20;;
18883;SDS011;9574;47.282;9.640;2023-06-26T02:28:23;6.45;;;4.60;;
18883;SDS011;9574;47.282;9.640;2023-06-26T02:30:50;6.63;;;4.80;;
18883;SDS011;9574;47.282;9.640;2023-06-26T02:33:18;5.60;;;4.30;;
18883;SDS011;9574;47.282;9.640;2023-06-26T02:35:45;6.93;;;4.32;;
18883;SDS011;9574;47.282;9.640;2023-06-26T02:38:12;5.90;;;4.15;;
18883;SDS011;9574;47.282;9.640;2023-06-26T02:40:39;5.63;;;4.05;;
18883;SDS011;9574;47.282;9.640;2023-06-26T02:43:06;6.13;;;4.05;;
18883;SDS011;9574;47.282;9.640;2023-06-26T02:45:33;6.70;;;4.13;;
18883;SDS011;9574;47.282;9.640;2023-06-26T02:48:00;6.93;;;4.40;;
18883;SDS011;9574;47.282;9.640;2023-06-26T02:50:28;5.82;;;4.50;;
18883;SDS011;9574;47.282;9.640;2023-06-26T02:52:55;5.28;;;4.22;;
18883;SDS011;9574;47.282;9.640;2023-06-26T02:55:22;7.88;;;5.10;;
18883;SDS011;9574;47.282;9.640;2023-06-26T02:57:50;6.43;;;4.70;;
18883;SDS011;9574;47.282;9.640;2023-06-26T03:00:17;5.53;;;4.28;;
18883;SDS011;9574;47.282;9.640;2023-06-26T03:02:44;8.60;;;4.53;;
18883;SDS011;9574;47.282;9.640;2023-06-26T03:05:11;5.90;;;4.13;;
18883;SDS011;9574;47.282;9.640;2023-06-26T03:07:40;6.22;;;4.53;;
18883;SDS011;9574;47.282;9.640;2023-06-26T03:10:07;6.70;;;4.40;;
18883;SDS011;9574;47.282;9.640;2023-06-26T03:12:34;7.10;;;4.78;;
18883;SDS011;9574;47.282;9.640;2023-06-26T03:15:01;6.72;;;4.38;;
18883;SDS011;9574;47.282;9.640;2023-06-26T03:17:29;5.68;;;4.20;;
18883;SDS011;9574;47.282;9.640;2023-06-26T03:19:55;5.63;;;4.32;;
18883;SDS011;9574;47.282;9.640;2023-06-26T03:22:22;6.70;;;4.75;;
18883;SDS011;9574;47.282;9.640;2023-06-26T03:24:51;7.20;;;4.82;;
18883;SDS011;9574;47.282;9.640;2023-06-26T03:27:18;7.25;;;4.47;;
18883;SDS011;9574;47.282;9.640;2023-06-26T03:29:45;6.35;;;4.38;;
18883;SDS011;9574;47.282;9.640;2023-06-26T03:32:12;7.72;;;4.45;;
18883;SDS011;9574;47.282;9.640;2023-06-26T03:34:39;6.15;;;4.45;;
18883;SDS011;9574;47.282;9.640;2023-06-26T03:37:06;5.45;;;4.28;;
18883;SDS011;9574;47.282;9.640;2023-06-26T03:39:33;7.78;;;4.63;;
18883;SDS011;9574;47.282;9.640;2023-06-26T03:42:01;6.82;;;4.90;;
18883;SDS011;9574;47.282;9.640;2023-06-26T03:44:29;7.30;;;5.32;;
18883;SDS011;9574;47.282;9.640;2023-06-26T03:46:56;6.75;;;4.70;;
18883;SDS011;9574;47.282;9.640;2023-06-26T03:49:23;6.18;;;4.55;;
18883;SDS011;9574;47.282;9.640;2023-06-26T03:51:49;8.27;;;4.68;;
18883;SDS011;9574;47.282;9.640;2023-06-26T03:54:17;6.75;;;4.90;;
18883;SDS011;9574;47.282;9.640;2023-06-26T03:56:43;7.28;;;4.68;;
18883;SDS011;9574;47.282;9.640;2023-06-26T03:59:12;6.22;;;4.72;;
18883;SDS011;9574;47.282;9.640;2023-06-26T04:01:39;6.38;;;4.57;;
18883;SDS011;9574;47.282;9.640;2023-06-26T04:04:06;6.28;;;4.55;;
18883;SDS011;9574;47.282;9.640;2023-06-26T04:06:33;5.80;;;4.45;;
18883;SDS011;9574;47.282;9.640;2023-06-26T04:09:00;7.22;;;4.60;;
18883;SDS011;9574;47.282;9.640;2023-06-26T04:11:29;6.13;;;4.38;;
18883;SDS011;9574;47.282;9.640;2023-06-26T04:13:57;6.03;;;4.38;;
18883;SDS011;9574;47.282;9.640;2023-06-26T04:16:25;7.32;;;4.93;;
18883;SDS011;9574;47.282;9.640;2023-06-26T04:18:52;7.15;;;5.03;;
18883;SDS011;9574;47.282;9.640;2023-06-26T04:21:21;6.82;;;4.22;;
18883;SDS011;9574;47.282;9.640;2023-06-26T04:23:49;7.00;;;4.55;;
18883;SDS011;9574;47.282;9.640;2023-06-26T04:26:17;6.20;;;4.53;;
18883;SDS011;9574;47.282;9.640;2023-06-26T04:28:44;6.72;;;4.50;;
18883;SDS011;9574;47.282;9.640;2023-06-26T04:31:11;7.18;;;4.88;;
18883;SDS011;9574;47.282;9.640;2023-06-26T04:33:39;6.93;;;4.68;;
18883;SDS011;9574;47.282;9.640;2023-06-26T04:36:06;5.80;;;4.13;;
18883;SDS011;9574;47.282;9.640;2023-06-26T04:38:33;8.73;;;4.55;;
18883;SDS011;9574;47.282;9.640;2023-06-26T04:41:00;7.85;;;4.63;;
18883;SDS011;9574;47.282;9.640;2023-06-26T04:43:28;7.00;;;4.75;;
18883;SDS011;9574;47.282;9.640;2023-06-26T04:45:55;6.88;;;4.55;;
18883;SDS011;9574;47.282;9.640;2023-06-26T04:48:22;6.97;;;4.63;;
18883;SDS011;9574;47.282;9.640;2023-06-26T04:50:50;7.63;;;4.75;;
18883;SDS011;9574;47.282;9.640;2023-06-26T04:53:19;8.80;;;5.32;;
18883;SDS011;9574;47.282;9.640;2023-06-26T04:55:47;6.22;;;4.70;;
18883;SDS011;9574;47.282;9.640;2023-06-26T04:58:14;8.82;;;5.05;;
18883;SDS011;9574;47.282;9.640;2023-06-26T05:00:41;6.55;;;4.75;;
18883;SDS011;9574;47.282;9.640;2023-06-26T05:03:08;9.73;;;5.40;;
18883;SDS011;9574;47.282;9.640;2023-06-26T05:05:35;6.70;;;4.60;;
18883;SDS011;9574;47.282;9.640;2023-06-26T05:08:14;9.15;;;5.40;;
18883;SDS011;9574;47.282;9.640;2023-06-26T05:10:41;7.50;;;5.10;;
18883;SDS011;9574;47.282;9.640;2023-06-26T05:13:09;8.05;;;5.53;;
18883;SDS011;9574;47.282;9.640;2023-06-26T05:15:36;7.30;;;5.13;;
18883;SDS011;9574;47.282;9.640;2023-06-26T05:18:03;9.30;;;5.22;;
18883;SDS011;9574;47.282;9.640;2023-06-26T05:20:31;5.53;;;4.55;;
18883;SDS011;9574;47.282;9.640;2023-06-26T05:22:58;7.05;;;4.47;;
18883;SDS011;9574;47.282;9.640;2023-06-26T05:25:27;7.60;;;4.88;;
18883;SDS011;9574;47.282;9.640;2023-06-26T05:27:56;5.88;;;4.47;;
18883;SDS011;9574;47.282;9.640;2023-06-26T05:30:23;7.40;;;4.95;;
18883;SDS011;9574;47.282;9.640;2023-06-26T05:32:51;8.23;;;5.28;;
18883;SDS011;9574;47.282;9.640;2023-06-26T05:35:20;10.52;;;5.20;;
18883;SDS011;9574;47.282;9.640;2023-06-26T05:37:48;7.18;;;4.55;;
18883;SDS011;9574;47.282;9.640;2023-06-26T05:40:17;7.28;;;4.93;;
18883;SDS011;9574;47.282;9.640;2023-06-26T05:42:46;7.20;;;5.15;;
18883;SDS011;9574;47.282;9.640;2023-06-26T05:45:14;8.05;;;5.13;;
18883;SDS011;9574;47.282;9.640;2023-06-26T05:47:41;6.80;;;4.70;;
18883;SDS011;9574;47.282;9.640;2023-06-26T05:50:09;8.25;;;4.90;;
18883;SDS011;9574;47.282;9.640;2023-06-26T05:52:37;6.45;;;4.70;;
18883;SDS011;9574;47.282;9.640;2023-06-26T05:55:05;7.15;;;5.07;;
18883;SDS011;9574;47.282;9.640;2023-06-26T05:57:33;6.00;;;4.25;;
18883;SDS011;9574;47.282;9.640;2023-06-26T06:00:03;7.30;;;5.07;;
18883;SDS011;9574;47.282;9.640;2023-06-26T06:02:35;7.25;;;4.90;;
18883;SDS011;9574;47.282;9.640;2023-06-26T06:05:03;6.32;;;4.68;;
18883;SDS011;9574;47.282;9.640;2023-06-26T06:07:30;8.10;;;4.95;;
18883;SDS011;9574;47.282;9.640;2023-06-26T06:09:58;6.03;;;4.55;;
18883;SDS011;9574;47.282;9.640;2023-06-26T06:12:25;6.57;;;4.45;;
18883;SDS011;9574;47.282;9.640;2023-06-26T06:14:52;6.78;;;4.88;;
18883;SDS011;9574;47.282;9.640;2023-06-26T06:17:21;6.85;;;5.00;;
18883;SDS011;9574;47.282;9.640;2023-06-26T06:19:49;11.13;;;5.10;;
18883;SDS011;9574;47.282;9.640;2023-06-26T06:22:16;7.93;;;5.30;;
18883;SDS011;9574;47.282;9.640;2023-06-26T06:24:43;7.97;;;5.05;;
18883;SDS011;9574;47.282;9.640;2023-06-26T06:27:10;7.97;;;5.22;;
18883;SDS011;9574;47.282;9.640;2023-06-26T06:29:38;8.00;;;5.13;;
18883;SDS011;9574;47.282;9.640;2023-06-26T06:32:05;9.77;;;5.03;;
18883;SDS011;9574;47.282;9.640;2023-06-26T06:34:34;8.20;;;5.30;;
18883;SDS011;9574;47.282;9.640;2023-06-26T06:37:01;7.65;;;4.85;;
18883;SDS011;9574;47.282;9.640;2023-06-26T06:39:28;8.43;;;5.95;;
18883;SDS011;9574;47.282;9.640;2023-06-26T06:41:55;6.43;;;5.00;;
18883;SDS011;9574;47.282;9.640;2023-06-26T06:44:22;9.13;;;5.80;;
18883;SDS011;9574;47.282;9.640;2023-06-26T06:46:49;8.88;;;5.63;;
18883;SDS011;9574;47.282;9.640;2023-06-26T06:49:16;6.88;;;5.07;;
18883;SDS011;9574;47.282;9.640;2023-06-26T06:51:45;10.55;;;5.70;;
18883;SDS011;9574;47.282;9.640;2023-06-26T06:54:12;6.10;;;4.93;;
18883;SDS011;9574;47.282;9.640;2023-06-26T06:56:38;7.47;;;5.55;;
18883;SDS011;9574;47.282;9.640;2023-06-26T06:59:05;10.07;;;5.57;;
18883;SDS011;9574;47.282;9.640;2023-06-26T07:01:32;7.70;;;6.00;;
18883;SDS011;9574;47.282;9.640;2023-06-26T07:03:59;8.55;;;5.75;;
18883;SDS011;9574;47.282;9.640;2023-06-26T07:06:29;9.80;;;6.15;;
18883;SDS011;9574;47.282;9.640;2023-06-26T07:08:57;9.10;;;5.50;;
18883;SDS011;9574;47.282;9.640;2023-06-26T07:11:24;11.20;;;6.05;;
18883;SDS011;9574;47.282;9.640;2023-06-26T07:13:51;7.95;;;6.38;;
18883;SDS011;9574;47.282;9.640;2023-06-26T07:16:18;7.07;;;5.35;;
18883;SDS011;9574;47.282;9.640;2023-06-26T07:18:45;7.53;;;5.40;;
18883;SDS011;9574;47.282;9.640;2023-06-26T07:21:11;7.72;;;5.65;;
18883;SDS011;9574;47.282;9.640;2023-06-26T07:23:38;10.43;;;6.07;;
18883;SDS011;9574;47.282;9.640;2023-06-26T07:26:07;9.63;;;5.72;;
18883;SDS011;9574;47.282;9.640;2023-06-26T07:28:34;14.23;;;6.43;;
18883;SDS011;9574;47.282;9.640;2023-06-26T07:31:01;10.88;;;5.65;;
18883;SDS011;9574;47.282;9.640;2023-06-26T07:33:27;8.73;;;5.45;;
18883;SDS011;9574;47.282;9.640;2023-06-26T07:35:54;9.98;;;5.50;;
18883;SDS011;9574;47.282;9.640;2023-06-26T07:38:21;8.40;;;6.18;;
18883;SDS011;9574;47.282;9.640;2023-06-26T07:40:48;9.77;;;5.47;;
18883;SDS011;9574;47.282;9.640;2023-06-26T07:43:17;8.70;;;5.95;;
18883;SDS011;9574;47.282;9.640;2023-06-26T07:45:44;9.70;;;6.32;;
18883;SDS011;9574;47.282;9.640;2023-06-26T07:48:11;7.72;;;5.57;;
18883;SDS011;9574;47.282;9.640;2023-06-26T07:50:38;8.77;;;5.70;;
18883;SDS011;9574;47.282;9.640;2023-06-26T07:53:05;9.65;;;5.68;;
18883;SDS011;9574;47.282;9.640;2023-06-26T07:55:32;8.45;;;5.20;;
18883;SDS011;9574;47.282;9.640;2023-06-26T07:57:59;8.95;;;5.60;;
18883;SDS011;9574;47.282;9.640;2023-06-26T08:00:28;8.35;;;6.10;;
18883;SDS011;9574;47.282;9.640;2023-06-26T08:02:54;8.02;;;5.85;;
18883;SDS011;9574;47.282;9.640;2023-06-26T08:05:21;10.32;;;6.35;;
18883;SDS011;9574;47.282;9.640;2023-06-26T08:07:48;8.95;;;5.75;;
18883;SDS011;9574;47.282;9.640;2023-06-26T08:10:15;8.35;;;6.05;;
18883;SDS011;9574;47.282;9.640;2023-06-26T08:12:42;8.35;;;5.70;;
18883;SDS011;9574;47.282;9.640;2023-06-26T08:15:10;8.65;;;6.28;;
18883;SDS011;9574;47.282;9.640;2023-06-26T08:17:38;10.65;;;5.75;;
18883;SDS011;9574;47.282;9.640;2023-06-26T08:20:06;8.00;;;5.95;;
18883;SDS011;9574;47.282;9.640;2023-06-26T08:22:34;7.25;;;5.85;;
18883;SDS011;9574;47.282;9.640;2023-06-26T08:25:02;10.35;;;5.75;;
18883;SDS011;9574;47.282;9.640;2023-06-26T08:27:29;9.13;;;5.95;;
18883;SDS011;9574;47.282;9.640;2023-06-26T08:29:56;9.60;;;6.03;;
18883;SDS011;9574;47.282;9.640;2023-06-26T08:32:23;7.03;;;5.38;;
18883;SDS011;9574;47.282;9.640;2023-06-26T08:34:52;7.85;;;6.13;;
18883;SDS011;9574;47.282;9.640;2023-06-26T08:37:19;7.72;;;6.50;;
18883;SDS011;9574;47.282;9.640;2023-06-26T08:39:47;10.02;;;6.13;;
18883;SDS011;9574;47.282;9.640;2023-06-26T08:42:14;9.27;;;6.15;;
18883;SDS011;9574;47.282;9.640;2023-06-26T08:44:41;9.07;;;6.05;;
18883;SDS011;9574;47.282;9.640;2023-06-26T08:47:09;9.27;;;6.20;;
18883;SDS011;9574;47.282;9.640;2023-06-26T08:49:42;8.88;;;6.55;;
18883;SDS011;9574;47.282;9.640;2023-06-26T08:52:19;10.73;;;5.82;;
18883;SDS011;9574;47.282;9.640;2023-06-26T08:54:51;8.07;;;6.18;;
18883;SDS011;9574;47.282;9.640;2023-06-26T08:57:21;9.75;;;5.90;;
18883;SDS011;9574;47.282;9.640;2023-06-26T08:59:49;7.97;;;6.55;;
18883;SDS011;9574;47.282;9.640;2023-06-26T09:02:16;9.18;;;6.18;;
18883;SDS011;9574;47.282;9.640;2023-06-26T09:04:43;8.27;;;6.25;;
18883;SDS011;9574;47.282;9.640;2023-06-26T09:07:10;10.55;;;7.25;;
18883;SDS011;9574;47.282;9.640;2023-06-26T09:09:39;7.78;;;5.65;;
18883;SDS011;9574;47.282;9.640;2023-06-26T09:12:06;10.90;;;6.03;;
18883;SDS011;9574;47.282;9.640;2023-06-26T09:14:34;9.30;;;6.28;;
18883;SDS011;9574;47.282;9.640;2023-06-26T09:17:02;10.57;;;6.03;;
18883;SDS011;9574;47.282;9.640;2023-06-26T09:19:29;7.18;;;6.22;;
18883;SDS011;9574;47.282;9.640;2023-06-26T09:21:57;8.88;;;6.45;;
18883;SDS011;9574;47.282;9.640;2023-06-26T09:24:24;8.27;;;6.30;;
18883;SDS011;9574;47.282;9.640;2023-06-26T09:26:53;6.90;;;5.13;;
18883;SDS011;9574;47.282;9.640;2023-06-26T09:29:20;6.65;;;5.22;;
18883;SDS011;9574;47.282;9.640;2023-06-26T09:31:48;6.50;;;5.70;;
18883;SDS011;9574;47.282;9.640;2023-06-26T09:34:18;6.97;;;6.07;;
18883;SDS011;9574;47.282;9.640;2023-06-26T09:36:45;7.13;;;6.10;;
18883;SDS011;9574;47.282;9.640;2023-06-26T09:39:14;7.78;;;5.80;;
18883;SDS011;9574;47.282;9.640;2023-06-26T09:41:41;6.22;;;5.05;;
18883;SDS011;9574;47.282;9.640;2023-06-26T09:44:11;7.57;;;5.53;;
18883;SDS011;9574;47.282;9.640;2023-06-26T09:46:40;6.53;;;5.05;;
18883;SDS011;9574;47.282;9.640;2023-06-26T09:49:07;7.53;;;5.57;;
18883;SDS011;9574;47.282;9.640;2023-06-26T09:51:36;5.63;;;5.03;;
18883;SDS011;9574;47.282;9.640;2023-06-26T09:54:04;8.18;;;5.20;;
18883;SDS011;9574;47.282;9.640;2023-06-26T09:56:32;5.20;;;4.70;;
18883;SDS011;9574;47.282;9.640;2023-06-26T09:59:00;7.57;;;5.28;;
18883;SDS011;9574;47.282;9.640;2023-06-26T10:01:30;5.72;;;4.85;;
18883;SDS011;9574;47.282;9.640;2023-06-26T10:03:58;6.65;;;4.72;;
18883;SDS011;9574;47.282;9.640;2023-06-26T10:06:26;6.40;;;5.10;;
18883;SDS011;9574;47.282;9.640;2023-06-26T10:08:55;6.25;;;4.82;;
18883;SDS011;9574;47.282;9.640;2023-06-26T10:11:24;6.97;;;5.95;;
18883;SDS011;9574;47.282;9.640;2023-06-26T10:13:56;6.78;;;5.18;;
18883;SDS011;9574;47.282;9.640;2023-06-26T10:16:25;6.30;;;5.13;;
18883;SDS011;9574;47.282;9.640;2023-06-26T10:18:56;6.40;;;5.63;;
18883;SDS011;9574;47.282;9.640;2023-06-26T10:21:28;8.45;;;5.93;;
18883;SDS011;9574;47.282;9.640;2023-06-26T10:23:57;6.85;;;5.70;;
18883;SDS011;9574;47.282;9.640;2023-06-26T10:26:24;5.80;;;4.93;;
18883;SDS011;9574;47.282;9.640;2023-06-26T10:28:53;8.73;;;4.95;;
18883;SDS011;9574;47.282;9.640;2023-06-26T10:31:23;7.70;;;5.88;;
18883;SDS011;9574;47.282;9.640;2023-06-26T10:33:55;6.47;;;4.78;;
18883;SDS011;9574;47.282;9.640;2023-06-26T10:36:26;6.28;;;5.40;;
18883;SDS011;9574;47.282;9.640;2023-06-26T10:38:55;7.03;;;5.03;;
18883;SDS011;9574;47.282;9.640;2023-06-26T10:41:24;7.93;;;4.95;;
18883;SDS011;9574;47.282;9.640;2023-06-26T10:44:05;6.95;;;5.15;;
18883;SDS011;9574;47.282;9.640;2023-06-26T10:46:33;6.70;;;5.50;;
18883;SDS011;9574;47.282;9.640;2023-06-26T10:49:15;7.43;;;5.30;;
18883;SDS011;9574;47.282;9.640;2023-06-26T10:51:45;6.22;;;4.75;;
18883;SDS011;9574;47.282;9.640;2023-06-26T10:54:14;7.95;;;5.45;;
18883;SDS011;9574;47.282;9.640;2023-06-26T10:56:42;6.55;;;5.05;;
18883;SDS011;9574;47.282;9.640;2023-06-26T10:59:13;6.13;;;5.18;;
18883;SDS011;9574;47.282;9.640;2023-06-26T11:01:42;5.82;;;4.85;;
18883;SDS011;9574;47.282;9.640;2023-06-26T11:04:10;6.25;;;5.00;;
18883;SDS011;9574;47.282;9.640;2023-06-26T11:06:39;6.22;;;5.40;;
18883;SDS011;9574;47.282;9.640;2023-06-26T11:09:06;7.60;;;5.47;;
18883;SDS011;9574;47.282;9.640;2023-06-26T11:11:55;7.32;;;5.47;;
18883;SDS011;9574;47.282;9.640;2023-06-26T11:14:30;6.40;;;4.90;;
18883;SDS011;9574;47.282;9.640;2023-06-26T11:16:58;7.18;;;5.40;;
18883;SDS011;9574;47.282;9.640;2023-06-26T11:19:28;6.85;;;4.85;;
18883;SDS011;9574;47.282;9.640;2023-06-26T11:21:59;10.40;;;5.00;;
18883;SDS011;9574;47.282;9.640;2023-06-26T11:24:29;9.93;;;5.50;;
18883;SDS011;9574;47.282;9.640;2023-06-26T11:26:59;6.07;;;5.40;;
18883;SDS011;9574;47.282;9.640;2023-06-26T11:29:28;6.30;;;5.03;;
18883;SDS011;9574;47.282;9.640;2023-06-26T11:31:59;6.60;;;5.13;;
18883;SDS011;9574;47.282;9.640;2023-06-26T11:34:32;5.57;;;4.93;;
18883;SDS011;9574;47.282;9.640;2023-06-26T11:37:01;6.35;;;5.20;;
18883;SDS011;9574;47.282;9.640;2023-06-26T11:39:28;7.13;;;5.38;;
18883;SDS011;9574;47.282;9.640;2023-06-26T11:41:56;8.27;;;5.38;;
18883;SDS011;9574;47.282;9.640;2023-06-26T11:44:23;6.90;;;5.10;;
18883;SDS011;9574;47.282;9.640;2023-06-26T11:46:55;8.27;;;5.07;;
18883;SDS011;9574;47.282;9.640;2023-06-26T11:49:23;6.35;;;4.78;;
18883;SDS011;9574;47.282;9.640;2023-06-26T11:51:53;6.45;;;4.95;;
18883;SDS011;9574;47.282;9.640;2023-06-26T11:54:25;5.85;;;4.53;;
18883;SDS011;9574;47.282;9.640;2023-06-26T11:56:53;7.75;;;4.75;;
18883;SDS011;9574;47.282;9.640;2023-06-26T11:59:22;7.00;;;4.90;;
18883;SDS011;9574;47.282;9.640;2023-06-26T12:01:50;6.40;;;5.22;;
18883;SDS011;9574;47.282;9.640;2023-06-26T12:04:18;7.13;;;5.03;;
18883;SDS011;9574;47.282;9.640;2023-06-26T12:06:47;7.25;;;5.30;;
18883;SDS011;9574;47.282;9.640;2023-06-26T12:09:16;6.72;;;5.35;;
18883;SDS011;9574;47.282;9.640;2023-06-26T12:11:47;5.95;;;4.57;;
18883;SDS011;9574;47.282;9.640;2023-06-26T12:14:17;8.30;;;5.85;;
18883;SDS011;9574;47.282;9.640;2023-06-26T12:16:46;6.30;;;5.43;;
18883;SDS011;9574;47.282;9.640;2023-06-26T12:19:13;7.78;;;5.45;;
18883;SDS011;9574;47.282;9.640;2023-06-26T12:21:47;5.70;;;4.68;;
18883;SDS011;9574;47.282;9.640;2023-06-26T12:24:18;6.07;;;5.13;;
18883;SDS011;9574;47.282;9.640;2023-06-26T12:26:48;6.97;;;4.88;;
18883;SDS011;9574;47.282;9.640;2023-06-26T12:29:18;7.63;;;5.28;;
18883;SDS011;9574;47.282;9.640;2023-06-26T12:31:48;9.45;;;5.18;;
18883;SDS011;9574;47.282;9.640;2023-06-26T12:34:18;9.15;;;5.53;;
18883;SDS011;9574;47.282;9.640;2023-06-26T12:36:46;9.07;;;5.20;;
18883;SDS011;9574;47.282;9.640;2023-06-26T12:39:15;6.03;;;5.43;;
18883;SDS011;9574;47.282;9.640;2023-06-26T12:41:51;6.65;;;5.53;;
18883;SDS011;9574;47.282;9.640;2023-06-26T12:44:20;6.35;;;4.82;;
18883;SDS011;9574;47.282;9.640;2023-06-26T12:46:49;7.47;;;5.43;;
18883;SDS011;9574;47.282;9.640;2023-06-26T12:49:20;6.65;;;5.30;;
18883;SDS011;9574;47.282;9.640;2023-06-26T12:51:55;6.47;;;5.38;;
18883;SDS011;9574;47.282;9.640;2023-06-26T12:54:22;6.72;;;5.32;;
18883;SDS011;9574;47.282;9.640;2023-06-26T12:56:51;6.32;;;5.28;;
18883;SDS011;9574;47.282;9.640;2023-06-26T12:59:18;6.60;;;5.57;;
18883;SDS011;9574;47.282;9.640;2023-06-26T13:01:54;6.95;;;5.28;;
18883;SDS011;9574;47.282;9.640;2023-06-26T13:04:21;5.90;;;5.20;;
18883;SDS011;9574;47.282;9.640;2023-06-26T13:06:48;6.55;;;5.22;;
18883;SDS011;9574;47.282;9.640;2023-06-26T13:09:16;6.68;;;5.18;;
18883;SDS011;9574;47.282;9.640;2023-06-26T13:11:44;6.07;;;5.25;;
18883;SDS011;9574;47.282;9.640;2023-06-26T13:14:12;7.10;;;5.65;;
18883;SDS011;9574;47.282;9.640;2023-06-26T13:16:39;5.95;;;5.35;;
18883;SDS011;9574;47.282;9.640;2023-06-26T13:19:07;6.28;;;5.60;;
18883;SDS011;9574;47.282;9.640;2023-06-26T13:21:34;7.13;;;5.63;;
18883;SDS011;9574;47.282;9.640;2023-06-26T13:24:01;7.18;;;5.45;;
18883;SDS011;9574;47.282;9.640;2023-06-26T13:26:29;6.10;;;5.20;;
18883;SDS011;9574;47.282;9.640;2023-06-26T13:28:57;6.97;;;5.30;;
18883;SDS011;9574;47.282;9.640;2023-06-26T13:31:25;7.18;;;6.30;;
18883;SDS011;9574;47.282;9.640;2023-06-26T13:33:52;6.57;;;5.38;;
18883;SDS011;9574;47.282;9.640;2023-06-26T13:36:19;8.32;;;5.70;;
18883;SDS011;9574;47.282;9.640;2023-06-26T13:38:47;7.47;;;5.82;;
18883;SDS011;9574;47.282;9.640;2023-06-26T13:41:21;8.43;;;5.65;;
18883;SDS011;9574;47.282;9.640;2023-06-26T13:43:49;6.75;;;5.63;;
18883;SDS011;9574;47.282;9.640;2023-06-26T13:46:16;8.43;;;6.20;;
18883;SDS011;9574;47.282;9.640;2023-06-26T13:48:44;10.60;;;5.90;;
18883;SDS011;9574;47.282;9.640;2023-06-26T13:51:11;7.03;;;5.53;;
18883;SDS011;9574;47.282;9.640;2023-06-26T13:53:38;6.18;;;5.57;;
18883;SDS011;9574;47.282;9.640;2023-06-26T13:56:05;6.55;;;5.60;;
18883;SDS011;9574;47.282;9.640;2023-06-26T13:58:34;8.82;;;4.97;;
18883;SDS011;9574;47.282;9.640;2023-06-26T14:01:01;6.18;;;5.30;;
18883;SDS011;9574;47.282;9.640;2023-06-26T14:03:29;6.63;;;5.32;;
18883;SDS011;9574;47.282;9.640;2023-06-26T14:05:57;8.02;;;5.38;;
18883;SDS011;9574;47.282;9.640;2023-06-26T14:08:24;8.93;;;6.22;;
18883;SDS011;9574;47.282;9.640;2023-06-26T14:10:51;8.85;;;5.80;;
18883;SDS011;9574;47.282;9.640;2023-06-26T14:13:18;7.45;;;5.40;;
18883;SDS011;9574;47.282;9.640;2023-06-26T14:15:45;6.13;;;5.07;;
18883;SDS011;9574;47.282;9.640;2023-06-26T14:18:12;7.00;;;5.45;;
18883;SDS011;9574;47.282;9.640;2023-06-26T14:20:39;6.32;;;5.63;;
18883;SDS011;9574;47.282;9.640;2023-06-26T14:23:08;9.27;;;5.70;;
18883;SDS011;9574;47.282;9.640;2023-06-26T14:25:35;5.50;;;5.00;;
18883;SDS011;9574;47.282;9.640;2023-06-26T14:28:02;7.07;;;5.65;;
18883;SDS011;9574;47.282;9.640;2023-06-26T14:30:29;6.78;;;5.60;;
18883;SDS011;9574;47.282;9.640;2023-06-26T14:32:56;7.10;;;5.05;;
18883;SDS011;9574;47.282;9.640;2023-06-26T14:35:22;7.40;;;5.55;;
18883;SDS011;9574;47.282;9.640;2023-06-26T14:37:49;6.97;;;6.00;;
18883;SDS011;9574;47.282;9.640;2023-06-26T14:40:19;7.57;;;5.38;;
18883;SDS011;9574;47.282;9.640;2023-06-26T14:42:46;7.55;;;5.05;;
18883;SDS011;9574;47.282;9.640;2023-06-26T14:45:13;6.80;;;5.32;;
18883;SDS011;9574;47.282;9.640;2023-06-26T14:47:40;6.78;;;5.28;;
18883;SDS011;9574;47.282;9.640;2023-06-26T14:50:07;7.47;;;5.47;;
18883;SDS011;9574;47.282;9.640;2023-06-26T14:52:35;6.70;;;5.10;;
18883;SDS011;9574;47.282;9.640;2023-06-26T14:55:02;8.95;;;5.60;;
18883;SDS011;9574;47.282;9.640;2023-06-26T14:57:31;6.20;;;4.88;;
18883;SDS011;9574;47.282;9.640;2023-06-26T14:59:58;6.88;;;5.22;;
18883;SDS011;9574;47.282;9.640;2023-06-26T15:02:25;7.15;;;5.72;;
18883;SDS011;9574;47.282;9.640;2023-06-26T15:04:52;7.68;;;5.13;;
18883;SDS011;9574;47.282;9.640;2023-06-26T15:07:19;6.55;;;5.50;;